createdAt,value
2023-04-13T00:01:12.827Z,7.40
2023-04-13T00:03:42.166Z,7.30
2023-04-13T00:06:11.540Z,7.30
2023-04-13T00:08:39.620Z,7.20
2023-04-13T00:11:08.406Z,7.10
2023-04-13T00:13:41.305Z,7.00
2023-04-13T00:16:10.323Z,7.10
2023-04-13T00:18:38.195Z,7.00
2023-04-13T00:21:08.473Z,7.00
2023-04-13T00:23:36.399Z,7.00
2023-04-13T00:26:04.524Z,6.80
2023-04-13T00:28:33.245Z,6.80
2023-04-13T00:31:01.261Z,6.70
2023-04-13T00:33:29.130Z,6.70
2023-04-13T00:35:57.005Z,6.70
2023-04-13T00:38:27.291Z,6.40
2023-04-13T00:40:55.811Z,6.40
2023-04-13T00:43:23.729Z,6.20
2023-04-13T00:45:51.786Z,6.00
2023-04-13T00:48:19.645Z,6.00
2023-04-13T00:50:47.495Z,6.00
2023-04-13T00:53:16.462Z,5.90
2023-04-13T00:55:45.679Z,6.00
2023-04-13T00:58:13.733Z,6.00
2023-04-13T01:00:43.214Z,6.00
2023-04-13T01:03:11.624Z,5.90
2023-04-13T01:05:44.227Z,6.00
2023-04-13T01:08:14.831Z,6.10
2023-04-13T01:10:48.759Z,5.90
2023-04-13T01:13:22.266Z,6.10
2023-04-13T01:15:54.211Z,6.00
2023-04-13T01:18:22.681Z,6.10
2023-04-13T01:20:50.564Z,6.00
2023-04-13T01:23:31.091Z,6.00
2023-04-13T01:26:04.208Z,6.00
2023-04-13T01:28:33.466Z,5.80
2023-04-13T01:31:01.480Z,5.90
2023-04-13T01:33:31.004Z,5.80
2023-04-13T01:36:00.659Z,5.70
2023-04-13T01:38:28.524Z,5.70
2023-04-13T01:40:56.368Z,5.80
2023-04-13T01:43:24.185Z,5.80
2023-04-13T01:45:55.974Z,5.70
2023-04-13T01:48:28.579Z,5.60
2023-04-13T01:50:58.605Z,5.50
2023-04-13T01:53:29.208Z,5.50
2023-04-13T01:55:57.083Z,5.50
2023-04-13T01:58:28.113Z,5.70
2023-04-13T02:00:57.292Z,5.50
2023-04-13T02:03:25.226Z,5.50
2023-04-13T02:05:53.160Z,5.50
2023-04-13T02:08:20.952Z,5.60
2023-04-13T02:10:48.954Z,5.50
2023-04-13T02:13:16.759Z,5.50
2023-04-13T02:15:44.616Z,5.70
2023-04-13T02:18:13.802Z,5.60
2023-04-13T02:20:45.405Z,5.30
2023-04-13T02:23:14.860Z,5.40
2023-04-13T02:25:45.990Z,5.40
2023-04-13T02:28:59.057Z,5.40
2023-04-13T02:31:26.798Z,5.30
2023-04-13T02:33:55.848Z,5.20
2023-04-13T02:36:24.978Z,5.30
2023-04-13T02:38:53.089Z,5.20
2023-04-13T02:41:23.070Z,5.40
2023-04-13T02:43:52.093Z,5.50
2023-04-13T02:46:19.979Z,5.40
2023-04-13T02:48:47.807Z,5.30
2023-04-13T02:51:16.991Z,5.30
2023-04-13T02:53:44.748Z,5.40
2023-04-13T02:56:14.249Z,5.50
2023-04-13T02:58:42.265Z,5.50
2023-04-13T03:01:10.107Z,5.50
2023-04-13T03:03:38.013Z,5.60
2023-04-13T03:06:06.168Z,5.50
2023-04-13T03:08:36.740Z,5.60
2023-04-13T03:11:06.208Z,5.60
2023-04-13T03:13:34.010Z,5.60
2023-04-13T03:16:02.532Z,5.60
2023-04-13T03:18:30.299Z,5.60
2023-04-13T03:20:58.090Z,5.50
2023-04-13T03:23:25.958Z,5.40
2023-04-13T03:25:55.089Z,5.30
2023-04-13T03:28:23.735Z,5.20
2023-04-13T03:30:51.508Z,5.20
2023-04-13T03:33:19.310Z,5.30
2023-04-13T03:35:47.101Z,5.30
2023-04-13T03:38:14.863Z,5.20
2023-04-13T03:40:43.025Z,5.10
2023-04-13T03:43:12.130Z,5.00
2023-04-13T03:45:39.907Z,5.00
2023-04-13T03:48:08.217Z,5.00
2023-04-13T03:50:36.174Z,4.90
2023-04-13T03:53:03.977Z,4.60
2023-04-13T03:55:31.755Z,4.80
2023-04-13T03:57:59.710Z,4.70
2023-04-13T04:00:28.812Z,4.70
2023-04-13T04:02:56.699Z,4.80
2023-04-13T04:05:24.814Z,4.80
2023-04-13T04:07:52.677Z,5.10
2023-04-13T04:10:20.463Z,5.00
2023-04-13T04:12:48.220Z,5.00
2023-04-13T04:15:16.058Z,5.10
2023-04-13T04:17:45.180Z,5.00
2023-04-13T04:20:13.783Z,5.00
2023-04-13T04:22:41.888Z,4.80
2023-04-13T04:25:10.270Z,4.90
2023-04-13T04:27:38.777Z,5.00
2023-04-13T04:30:10.590Z,4.90
2023-04-13T04:32:38.494Z,4.70
2023-04-13T04:35:08.968Z,4.60
2023-04-13T04:37:37.685Z,4.40
2023-04-13T04:40:09.242Z,4.40
2023-04-13T04:42:37.932Z,4.40
2023-04-13T04:45:07.139Z,4.40
2023-04-13T04:47:42.027Z,4.40
2023-04-13T04:50:12.511Z,4.20
2023-04-13T04:52:40.430Z,4.30
2023-04-13T04:55:09.123Z,4.40
2023-04-13T04:57:37.315Z,4.40
2023-04-13T05:00:09.805Z,4.30
2023-04-13T05:02:37.699Z,4.40
2023-04-13T05:05:06.895Z,4.30
2023-04-13T05:07:38.127Z,4.20
2023-04-13T05:10:07.094Z,4.20
2023-04-13T05:12:37.231Z,4.20
2023-04-13T05:15:06.415Z,4.10
2023-04-13T05:17:34.745Z,4.40
2023-04-13T05:20:03.560Z,4.30
2023-04-13T05:22:31.381Z,4.40
2023-04-13T05:25:00.510Z,4.40
2023-04-13T05:27:28.316Z,4.40
2023-04-13T05:29:57.205Z,4.50
2023-04-13T05:32:25.162Z,4.40
2023-04-13T05:34:52.992Z,4.40
2023-04-13T05:37:20.768Z,4.40
2023-04-13T05:39:48.554Z,4.40
2023-04-13T05:42:17.878Z,4.70
2023-04-13T05:44:52.899Z,4.70
2023-04-13T05:47:23.122Z,4.60
2023-04-13T05:49:52.255Z,4.40
2023-04-13T05:52:21.966Z,4.50
2023-04-13T05:54:49.969Z,4.60
2023-04-13T05:57:20.906Z,4.70
2023-04-13T05:59:48.652Z,4.60
2023-04-13T06:02:16.525Z,4.70
2023-04-13T06:04:44.888Z,4.90
2023-04-13T06:07:14.619Z,4.80
2023-04-13T06:09:43.084Z,4.90
2023-04-13T06:12:10.888Z,4.90
2023-04-13T06:14:40.069Z,5.00
2023-04-13T06:17:07.929Z,4.90
2023-04-13T06:19:35.853Z,4.90
2023-04-13T06:22:03.716Z,5.00
2023-04-13T06:24:31.489Z,5.00
2023-04-13T06:26:59.338Z,5.20
2023-04-13T06:29:27.168Z,5.20
2023-04-13T06:31:56.515Z,5.20
2023-04-13T06:34:24.305Z,5.30
2023-04-13T06:36:52.389Z,5.50
2023-04-13T06:39:20.203Z,5.50
2023-04-13T06:41:48.244Z,5.60
2023-04-13T06:44:16.099Z,5.50
2023-04-13T06:46:43.881Z,5.60
2023-04-13T06:49:13.236Z,5.70
2023-04-13T06:51:40.986Z,5.60
2023-04-13T06:54:08.788Z,5.50
2023-04-13T06:56:36.632Z,5.60
2023-04-13T06:59:04.696Z,5.70
2023-04-13T07:01:32.892Z,5.60
2023-04-13T07:04:03.321Z,5.70
2023-04-13T07:06:32.518Z,5.80
2023-04-13T07:09:00.591Z,5.90
2023-04-13T07:11:28.805Z,5.90
2023-04-13T07:13:56.925Z,6.00
2023-04-13T07:16:24.778Z,6.10
2023-04-13T07:18:52.619Z,6.20
2023-04-13T07:21:20.402Z,6.40
2023-04-13T07:23:50.013Z,6.30
2023-04-13T07:26:18.334Z,6.40
2023-04-13T07:28:46.149Z,6.60
2023-04-13T07:31:13.969Z,6.50
2023-04-13T07:33:41.827Z,6.60
2023-04-13T07:36:10.260Z,6.80
2023-04-13T07:38:38.200Z,6.80
2023-04-13T07:41:07.412Z,6.90
2023-04-13T07:43:35.390Z,6.90
2023-04-13T07:46:09.741Z,7.00
2023-04-13T07:48:37.565Z,7.10
2023-04-13T07:51:05.604Z,7.30
2023-04-13T07:53:33.465Z,7.50
2023-04-13T07:56:01.230Z,7.60
2023-04-13T07:58:30.380Z,7.50
2023-04-13T08:00:58.145Z,7.70
2023-04-13T08:03:26.039Z,8.00
2023-04-13T08:05:53.928Z,8.20
2023-04-13T08:08:21.737Z,8.20
2023-04-13T08:10:49.504Z,8.30
2023-04-13T08:13:17.441Z,8.30
2023-04-13T08:15:46.785Z,8.30
2023-04-13T08:18:14.679Z,8.40
2023-04-13T08:20:42.448Z,8.10
2023-04-13T08:23:12.417Z,8.40
2023-04-13T08:25:41.394Z,8.80
2023-04-13T08:28:09.601Z,8.90
2023-04-13T08:30:37.946Z,8.70
2023-04-13T08:33:07.239Z,8.70
2023-04-13T08:35:38.992Z,8.50
2023-04-13T08:38:07.063Z,8.60
2023-04-13T08:40:36.882Z,9.10
2023-04-13T08:43:04.670Z,8.70
2023-04-13T08:45:32.573Z,8.80
2023-04-13T08:48:00.599Z,8.90
2023-04-13T08:50:29.901Z,8.70
2023-04-13T08:52:57.674Z,8.50
2023-04-13T08:55:26.404Z,8.30
2023-04-13T08:57:54.278Z,8.30
2023-04-13T09:00:23.805Z,8.10
2023-04-13T09:03:04.091Z,8.10
2023-04-13T09:05:35.349Z,8.00
2023-04-13T09:08:04.759Z,8.00
2023-04-13T09:10:32.652Z,7.70
2023-04-13T09:13:00.863Z,7.90
2023-04-13T09:15:28.665Z,7.80
2023-04-13T09:17:56.852Z,7.80
2023-04-13T09:20:24.874Z,8.00
2023-04-13T09:22:54.036Z,8.10
2023-04-13T09:25:23.428Z,8.30
2023-04-13T09:27:54.147Z,8.40
2023-04-13T09:30:22.207Z,8.40
2023-04-13T09:32:50.992Z,8.50
2023-04-13T09:35:18.828Z,8.40
2023-04-13T09:37:47.838Z,8.50
2023-04-13T09:40:18.983Z,8.30
2023-04-13T09:42:55.349Z,8.40
2023-04-13T09:45:23.299Z,8.40
2023-04-13T09:47:52.831Z,8.30
2023-04-13T09:50:22.752Z,8.30
2023-04-13T09:52:59.953Z,8.40
2023-04-13T09:55:29.488Z,8.40
2023-04-13T09:57:57.288Z,8.60
2023-04-13T10:00:25.387Z,9.10
2023-04-13T10:02:53.856Z,9.40
2023-04-13T10:05:22.647Z,9.20
2023-04-13T10:07:51.584Z,9.20
2023-04-13T10:10:19.664Z,9.20
2023-04-13T10:12:49.436Z,9.30
2023-04-13T10:15:24.825Z,9.20
2023-04-13T10:17:57.041Z,9.20
2023-04-13T10:20:27.269Z,9.00
2023-04-13T10:22:55.578Z,9.10
2023-04-13T10:25:33.307Z,8.80
2023-04-13T10:28:03.761Z,8.90
2023-04-13T10:30:31.798Z,8.70
2023-04-13T10:33:05.479Z,8.80
2023-04-13T10:35:36.918Z,8.90
2023-04-13T10:38:06.845Z,9.00
2023-04-13T10:40:44.191Z,9.20
2023-04-13T10:43:13.311Z,9.10
2023-04-13T10:45:41.142Z,9.10
2023-04-13T10:48:09.074Z,8.80
2023-04-13T10:50:38.871Z,8.60
2023-04-13T10:53:07.655Z,8.70
2023-04-13T10:55:35.750Z,8.90
2023-04-13T10:58:04.024Z,8.50
2023-04-13T11:00:45.714Z,8.40
2023-04-13T11:03:16.725Z,8.30
2023-04-13T11:05:45.125Z,8.30
2023-04-13T11:08:18.761Z,8.30
2023-04-13T11:10:51.415Z,8.20
2023-04-13T11:13:19.219Z,8.20
2023-04-13T11:15:49.097Z,8.20
2023-04-13T11:18:25.488Z,8.30
2023-04-13T11:20:53.382Z,8.20
2023-04-13T11:23:23.901Z,8.20
2023-04-13T11:25:54.703Z,8.20
2023-04-13T11:28:23.755Z,8.30
2023-04-13T11:30:56.668Z,8.20
2023-04-13T11:33:27.731Z,8.20
2023-04-13T11:35:56.082Z,8.10
2023-04-13T11:38:23.891Z,8.10
2023-04-13T11:40:56.761Z,8.00
2023-04-13T11:43:29.584Z,8.00
2023-04-13T11:45:58.797Z,8.10
2023-04-13T11:48:26.560Z,8.20
2023-04-13T11:50:54.331Z,8.20
2023-04-13T11:53:22.165Z,8.00
2023-04-13T11:55:53.706Z,8.10
2023-04-13T11:58:22.071Z,8.00
2023-04-13T12:00:50.023Z,8.00
2023-04-13T12:06:00.498Z,8.10
2023-04-13T12:08:30.534Z,8.00
2023-04-13T12:13:51.998Z,7.90
2023-04-13T12:19:10.125Z,7.90
2023-04-13T12:21:40.167Z,8.00
2023-04-13T12:24:08.518Z,8.00
2023-04-13T12:29:08.702Z,7.80
2023-04-13T12:31:36.902Z,7.90
2023-04-13T12:34:04.977Z,7.80
2023-04-13T12:36:36.233Z,7.80
2023-04-13T12:39:04.219Z,7.80
2023-04-13T12:41:32.233Z,7.80
2023-04-13T12:44:00.386Z,7.80
2023-04-13T12:46:28.908Z,7.90
2023-04-13T12:48:56.799Z,7.90
2023-04-13T12:51:24.648Z,7.80
2023-04-13T12:53:53.785Z,7.90
2023-04-13T12:56:22.165Z,8.00
2023-04-13T12:58:50.022Z,8.00
2023-04-13T13:01:18.024Z,7.90
2023-04-13T13:03:46.203Z,8.00
2023-04-13T13:06:14.124Z,7.90
2023-04-13T13:08:41.905Z,8.00
2023-04-13T13:11:11.110Z,8.00
2023-04-13T13:13:39.030Z,8.10
2023-04-13T13:16:07.042Z,8.10
2023-04-13T13:18:49.233Z,8.10
2023-04-13T13:21:18.728Z,8.00
2023-04-13T13:23:46.551Z,8.00
2023-04-13T13:28:47.303Z,7.50
2023-04-13T13:31:15.442Z,7.60
2023-04-13T13:33:43.512Z,7.70
2023-04-13T13:36:12.527Z,7.70
2023-04-13T13:38:40.579Z,7.80
2023-04-13T13:41:08.373Z,8.00
2023-04-13T13:43:37.848Z,7.80
2023-04-13T13:46:06.601Z,7.70
2023-04-13T13:48:34.623Z,7.80
2023-04-13T13:51:02.910Z,7.70
2023-04-13T13:53:31.929Z,7.80
2023-04-13T13:56:01.816Z,7.70
2023-04-13T13:58:29.926Z,7.90
2023-04-13T14:00:59.494Z,7.80
2023-04-13T14:03:50.906Z,7.80
2023-04-13T14:06:21.714Z,7.80
2023-04-13T14:08:49.660Z,7.80
2023-04-13T14:11:18.605Z,7.80
2023-04-13T14:13:46.576Z,7.90
2023-04-13T14:16:16.029Z,7.90
2023-04-13T14:18:46.992Z,7.80
2023-04-13T14:21:16.365Z,7.80
2023-04-13T14:23:44.480Z,7.80
2023-04-13T14:26:12.474Z,7.90
2023-04-13T14:28:40.381Z,7.90
2023-04-13T14:31:08.253Z,7.90
2023-04-13T14:33:38.007Z,7.60
2023-04-13T14:36:07.082Z,7.70
2023-04-13T14:38:35.468Z,7.60
2023-04-13T14:41:03.297Z,7.40
2023-04-13T14:43:31.656Z,7.50
2023-04-13T14:45:59.512Z,7.30
2023-04-13T14:48:29.789Z,7.10
2023-04-13T14:50:59.130Z,7.20
2023-04-13T14:53:27.367Z,7.20
2023-04-13T14:55:55.627Z,6.80
2023-04-13T14:58:23.735Z,6.60
2023-04-13T15:00:51.866Z,6.60
2023-04-13T15:03:19.925Z,6.60
2023-04-13T15:05:48.424Z,6.50
2023-04-13T15:08:19.548Z,6.20
2023-04-13T15:10:47.922Z,6.20
2023-04-13T15:13:16.037Z,6.30
2023-04-13T15:15:44.773Z,6.40
2023-04-13T15:18:12.717Z,6.40
2023-04-13T15:20:40.689Z,6.40
2023-04-13T15:23:08.467Z,6.70
2023-04-13T15:25:40.472Z,6.70
2023-04-13T15:28:08.339Z,6.70
2023-04-13T15:30:36.359Z,6.40
2023-04-13T15:33:10.064Z,6.30
2023-04-13T15:35:38.079Z,6.30
2023-04-13T15:38:06.356Z,6.40
2023-04-13T15:40:35.299Z,6.40
2023-04-13T15:43:04.728Z,6.40
2023-04-13T15:45:32.943Z,6.20
2023-04-13T15:48:01.044Z,6.20
2023-04-13T15:50:28.913Z,6.20
2023-04-13T15:52:57.086Z,6.30
2023-04-13T15:55:27.555Z,6.30
2023-04-13T15:57:57.043Z,6.20
2023-04-13T16:00:27.004Z,6.20
2023-04-13T16:02:56.873Z,6.40
2023-04-13T16:05:24.854Z,6.30
2023-04-13T16:07:52.735Z,6.30
2023-04-13T16:10:20.907Z,6.40
2023-04-13T16:12:50.014Z,6.30
2023-04-13T16:15:19.405Z,6.10
2023-04-13T16:18:01.647Z,6.10
2023-04-13T16:20:29.759Z,6.20
2023-04-13T16:23:02.308Z,6.20
2023-04-13T16:29:17.820Z,6.10
2023-04-13T16:31:47.551Z,6.20
2023-04-13T16:34:25.662Z,6.10
2023-04-13T16:36:54.255Z,6.20
2023-04-13T16:39:22.467Z,6.20
2023-04-13T16:41:50.336Z,6.10
2023-04-13T16:44:18.293Z,6.00
2023-04-13T16:46:46.412Z,6.10
2023-04-13T16:49:14.304Z,6.20
2023-04-13T16:51:43.501Z,6.10
2023-04-13T16:54:13.903Z,5.90
2023-04-13T16:56:41.933Z,6.00
2023-04-13T16:59:09.865Z,6.00
2023-04-13T17:01:39.753Z,5.90
2023-04-13T17:04:08.003Z,5.80
2023-04-13T17:06:37.200Z,5.90
2023-04-13T17:09:06.404Z,6.10
2023-04-13T17:11:34.356Z,6.20
2023-04-13T17:14:02.235Z,6.10
2023-04-13T17:16:30.194Z,6.30
2023-04-13T17:18:58.288Z,5.90
2023-04-13T17:21:27.326Z,5.90
2023-04-13T17:23:55.209Z,6.00
2023-04-13T17:26:24.388Z,6.10
2023-04-13T17:28:52.376Z,6.10
2023-04-13T17:31:20.268Z,6.10
2023-04-13T17:33:50.833Z,6.10
2023-04-13T17:36:18.991Z,6.00
2023-04-13T17:38:47.318Z,6.00
2023-04-13T17:41:15.187Z,6.00
2023-04-13T17:43:44.453Z,6.10
2023-04-13T17:46:12.632Z,5.90
2023-04-13T17:48:40.752Z,5.90
2023-04-13T17:51:11.496Z,5.70
2023-04-13T17:53:39.595Z,5.80
2023-04-13T17:56:07.740Z,5.80
2023-04-13T17:58:35.743Z,6.00
2023-04-13T18:01:09.194Z,5.90
2023-04-13T18:03:37.386Z,5.90
2023-04-13T18:06:06.049Z,5.60
2023-04-13T18:08:33.923Z,5.60
2023-04-13T18:11:01.795Z,5.70
2023-04-13T18:13:29.674Z,5.60
2023-04-13T18:15:57.607Z,5.70
2023-04-13T18:18:27.359Z,5.70
2023-04-13T18:20:55.399Z,5.50
2023-04-13T18:23:23.449Z,5.50
2023-04-13T18:25:51.486Z,5.70
2023-04-13T18:28:19.318Z,5.80
2023-04-13T18:30:47.172Z,5.60
2023-04-13T18:33:15.122Z,5.70
2023-04-13T18:35:45.691Z,5.50
2023-04-13T18:38:13.653Z,5.40
2023-04-13T18:40:41.686Z,5.60
2023-04-13T18:43:09.597Z,5.80
2023-04-13T18:45:37.449Z,5.70
2023-04-13T18:48:06.435Z,5.80
2023-04-13T18:50:34.421Z,5.60
2023-04-13T18:53:03.603Z,5.40
2023-04-13T18:55:31.402Z,5.40
2023-04-13T18:57:59.242Z,5.60
2023-04-13T19:00:27.312Z,5.40
2023-04-13T19:02:57.384Z,5.30
2023-04-13T19:05:26.019Z,5.40
2023-04-13T19:07:58.536Z,5.30
2023-04-13T19:10:28.367Z,5.30
2023-04-13T19:12:56.492Z,5.30
2023-04-13T19:15:24.577Z,5.40
2023-04-13T19:17:52.903Z,5.40
2023-04-13T19:20:22.423Z,5.30
2023-04-13T19:22:50.303Z,5.40
2023-04-13T19:25:18.106Z,5.40
2023-04-13T19:27:47.439Z,5.20
2023-04-13T19:30:16.081Z,5.20
2023-04-13T19:32:44.929Z,5.20
2023-04-13T19:35:13.059Z,5.30
2023-04-13T19:37:41.160Z,5.20
2023-04-13T19:40:13.170Z,5.20
2023-04-13T19:42:41.591Z,5.00
2023-04-13T19:45:11.221Z,5.00
2023-04-13T19:47:39.667Z,4.90
2023-04-13T19:50:09.187Z,5.00
2023-04-13T19:52:37.081Z,5.00
2023-04-13T19:55:05.333Z,5.00
2023-04-13T19:57:33.312Z,5.10
2023-04-13T20:00:01.230Z,5.60
2023-04-13T20:02:30.617Z,5.70
2023-04-13T20:04:58.495Z,5.40
2023-04-13T20:07:26.453Z,5.20
2023-04-13T20:09:54.294Z,5.00
2023-04-13T20:12:22.233Z,4.90
2023-04-13T20:14:50.119Z,4.90
2023-04-13T20:17:17.990Z,5.10
2023-04-13T20:19:47.182Z,5.00
2023-04-13T20:22:18.310Z,5.00
2023-04-13T20:24:46.170Z,5.00
2023-04-13T20:27:14.087Z,5.10
2023-04-13T20:29:41.930Z,5.30
2023-04-13T20:32:09.830Z,5.10
2023-04-13T20:34:37.975Z,5.00
2023-04-13T20:37:09.770Z,5.10
2023-04-13T20:39:38.815Z,5.00
2023-04-13T20:42:08.287Z,4.90
2023-04-13T20:44:37.899Z,4.90
2023-04-13T20:47:05.917Z,5.00
2023-04-13T20:49:34.443Z,4.90
2023-04-13T20:52:02.330Z,4.70
2023-04-13T20:54:31.786Z,4.90
2023-04-13T20:56:59.781Z,4.80
2023-04-13T20:59:28.469Z,4.70
2023-04-13T21:01:56.414Z,4.70
2023-04-13T21:04:24.362Z,4.80
2023-04-13T21:06:52.202Z,4.90
2023-04-13T21:09:20.011Z,4.70
2023-04-13T21:11:49.205Z,4.80
2023-04-13T21:14:21.177Z,4.90
2023-04-13T21:16:49.086Z,4.60
2023-04-13T21:19:17.016Z,4.60
2023-04-13T21:21:44.883Z,4.80
2023-04-13T21:24:12.755Z,4.70
2023-04-13T21:26:40.633Z,4.70
2023-04-13T21:29:10.155Z,4.60
2023-04-13T21:31:38.144Z,4.60
2023-04-13T21:34:06.251Z,4.70
2023-04-13T21:39:04.924Z,4.60
2023-04-13T21:41:32.754Z,4.60
2023-04-13T21:44:00.974Z,4.60
2023-04-13T21:46:30.423Z,4.60
2023-04-13T21:48:58.584Z,4.60
2023-04-13T21:51:27.409Z,4.70
2023-04-13T21:53:55.335Z,4.50
2023-04-13T21:56:23.146Z,4.50
2023-04-13T21:58:51.071Z,4.50
2023-04-13T22:01:19.447Z,4.50
2023-04-13T22:03:48.796Z,4.50
2023-04-13T22:06:16.757Z,4.60
2023-04-13T22:08:44.591Z,4.60
2023-04-13T22:11:12.444Z,4.40
2023-04-13T22:13:41.178Z,4.30
2023-04-13T22:16:09.457Z,4.30
2023-04-13T22:18:37.429Z,4.20
2023-04-13T22:21:06.989Z,4.40
2023-04-13T22:23:34.860Z,4.50
2023-04-13T22:26:02.938Z,4.40
2023-04-13T22:28:30.999Z,4.40
2023-04-13T22:30:59.295Z,4.40
2023-04-13T22:33:31.702Z,4.40
2023-04-13T22:35:59.748Z,4.50
2023-04-13T22:38:28.951Z,4.50
2023-04-13T22:40:56.825Z,4.60
2023-04-13T22:43:24.639Z,4.20
2023-04-13T22:45:58.180Z,4.30
2023-04-13T22:48:26.127Z,4.10
2023-04-13T22:50:53.982Z,4.10
2023-04-13T22:53:21.923Z,4.10
2023-04-13T22:55:51.092Z,4.20
2023-04-13T22:58:18.924Z,4.20
2023-04-13T23:00:46.762Z,4.20
2023-04-13T23:03:14.826Z,4.10
2023-04-13T23:05:42.831Z,4.30
2023-04-13T23:08:10.641Z,4.40
2023-04-13T23:10:38.539Z,4.30
2023-04-13T23:13:07.979Z,4.20
2023-04-13T23:15:35.859Z,4.20
2023-04-13T23:18:03.770Z,3.90
2023-04-13T23:20:32.245Z,3.90
2023-04-13T23:23:00.073Z,4.00
2023-04-13T23:25:27.942Z,4.10
2023-04-13T23:27:55.953Z,4.10
2023-04-13T23:30:25.254Z,3.90
2023-04-13T23:32:53.220Z,3.80
2023-04-13T23:35:21.120Z,3.70
2023-04-13T23:37:49.157Z,3.80
2023-04-13T23:40:17.001Z,3.50
2023-04-13T23:42:44.854Z,3.60
2023-04-13T23:45:12.869Z,3.60
2023-04-13T23:47:42.222Z,3.50
2023-04-13T23:50:11.200Z,3.30
2023-04-13T23:52:39.018Z,3.30
2023-04-13T23:55:07.724Z,3.20
2023-04-13T23:57:35.573Z,3.20
